Time;durP1;ratioP1;P1;durP2;ratioP2;P2;SDS_P1;SDS_P2;PMS_P1;PMS_P2;Temp;Humidity;BMP_temperature;BMP_pressure;BME280_temperature;BME280_humidity;BME280_pressure;Samples;Min_cycle;Max_cycle;Signal;HPM_P1;HPM_P2
2023/04/27 00:01:47;;;;;;;7.63;5.10;;;8.00;90.60;;;;;;5132172;28;20259;-68
2023/04/27 00:04:16;;;;;;;7.43;5.40;;;8.10;90.70;;;;;;5133114;27;20187;-68
2023/04/27 00:06:44;;;;;;;5.28;4.20;;;8.10;90.70;;;;;;5136954;27;20183;-68
2023/04/27 00:09:11;;;;;;;5.70;4.68;;;8.10;90.80;;;;;;5137962;27;20219;-67
2023/04/27 00:11:38;;;;;;;9.02;5.28;;;8.10;90.70;;;;;;5137493;27;20184;-68
2023/04/27 00:14:06;;;;;;;12.68;5.28;;;8.20;90.70;;;;;;5137852;27;20244;-68
2023/04/27 00:16:33;;;;;;;6.07;4.68;;;8.20;90.60;;;;;;5137049;27;20215;-67
2023/04/27 00:19:00;;;;;;;7.43;5.05;;;8.20;90.50;;;;;;5137750;27;20187;-67
2023/04/27 00:21:29;;;;;;;5.50;4.28;;;8.20;90.30;;;;;;5137327;27;20176;-68
2023/04/27 00:23:56;;;;;;;6.05;4.05;;;8.20;90.20;;;;;;5137610;27;20645;-68
2023/04/27 00:26:25;;;;;;;5.60;3.75;;;8.20;90.10;;;;;;5137010;27;20697;-67
2023/04/27 00:28:52;;;;;;;7.07;4.35;;;8.20;90.10;;;;;;5137342;27;20250;-67
2023/04/27 00:31:19;;;;;;;7.60;5.10;;;8.20;90.10;;;;;;5137274;27;20218;-68
2023/04/27 00:33:47;;;;;;;7.43;4.95;;;8.20;90.10;;;;;;5137105;27;20192;-67
2023/04/27 00:36:14;;;;;;;5.68;4.32;;;8.20;90.30;;;;;;5136688;27;20188;-68
2023/04/27 00:38:43;;;;;;;6.00;4.70;;;8.20;90.30;;;;;;5136946;27;20709;-67
2023/04/27 00:41:12;;;;;;;4.65;3.67;;;8.20;90.30;;;;;;5137230;27;20188;-68
2023/04/27 00:43:43;;;;;;;6.40;5.32;;;8.20;90.40;;;;;;5136367;27;22533;-67
2023/04/27 00:46:11;;;;;;;4.95;4.03;;;8.20;90.50;;;;;;5136972;27;20613;-68
2023/04/27 00:48:39;;;;;;;6.60;4.10;;;8.20;90.50;;;;;;5137449;27;20187;-68
2023/04/27 00:51:06;;;;;;;7.35;4.88;;;8.20;90.50;;;;;;5137106;27;20184;-68
2023/04/27 00:53:34;;;;;;;6.63;4.80;;;8.10;90.60;;;;;;5136496;27;20188;-68
2023/04/27 00:56:04;;;;;;;5.63;3.95;;;8.10;90.80;;;;;;5137012;27;20196;-67
2023/04/27 00:58:31;;;;;;;6.35;4.63;;;8.10;91.00;;;;;;5136572;27;20545;-68
2023/04/27 01:00:59;;;;;;;5.50;4.70;;;8.10;91.00;;;;;;5137015;27;20275;-67
2023/04/27 01:03:27;;;;;;;9.13;4.45;;;8.10;91.00;;;;;;5136501;27;20267;-68
2023/04/27 01:05:55;;;;;;;3.92;3.40;;;8.10;91.00;;;;;;5135950;27;20184;-67
2023/04/27 01:08:23;;;;;;;5.55;3.92;;;8.10;91.00;;;;;;5136880;27;20192;-67
2023/04/27 01:10:50;;;;;;;5.40;3.75;;;8.10;91.10;;;;;;5136262;27;20243;-67
2023/04/27 01:13:19;;;;;;;6.35;4.45;;;8.10;91.30;;;;;;5136406;27;20244;-67
2023/04/27 01:15:46;;;;;;;4.82;3.80;;;8.10;91.50;;;;;;5135439;27;20243;-68
2023/04/27 01:18:13;;;;;;;5.93;3.67;;;8.10;91.50;;;;;;5135978;27;20246;-68
2023/04/27 01:20:41;;;;;;;4.95;3.88;;;8.20;91.60;;;;;;5136267;27;20188;-68
2023/04/27 01:23:09;;;;;;;5.88;4.38;;;8.20;91.50;;;;;;5136212;27;20221;-68
2023/04/27 01:25:37;;;;;;;10.43;5.05;;;8.20;91.60;;;;;;5136046;27;20190;-67
2023/04/27 01:28:05;;;;;;;5.80;4.80;;;8.20;91.60;;;;;;5136467;27;20183;-68
2023/04/27 01:30:32;;;;;;;14.30;4.30;;;8.20;91.60;;;;;;5135611;27;20215;-68
2023/04/27 01:33:00;;;;;;;5.20;3.55;;;8.20;91.60;;;;;;5136382;27;20240;-67
2023/04/27 01:35:27;;;;;;;6.32;3.55;;;8.20;91.60;;;;;;5135156;27;20196;-68
2023/04/27 01:37:54;;;;;;;4.95;3.45;;;8.20;91.40;;;;;;5135336;27;20196;-68
2023/04/27 01:40:21;;;;;;;4.97;3.60;;;8.20;91.70;;;;;;5135802;27;20195;-68
2023/04/27 01:42:50;;;;;;;7.10;4.00;;;8.20;91.60;;;;;;5135597;27;20219;-67
2023/04/27 01:45:17;;;;;;;5.00;3.88;;;8.20;91.60;;;;;;5135651;27;20683;-68
2023/04/27 01:47:44;;;;;;;7.15;4.45;;;8.20;91.60;;;;;;5135217;27;20191;-68
2023/04/27 01:50:11;;;;;;;6.00;3.97;;;8.10;91.50;;;;;;5135628;27;20273;-68
2023/04/27 01:52:38;;;;;;;6.40;4.10;;;8.10;91.50;;;;;;5135604;27;20194;-68
2023/04/27 01:55:06;;;;;;;9.05;3.88;;;8.10;91.50;;;;;;5136603;27;20196;-67
2023/04/27 01:57:34;;;;;;;6.85;4.93;;;8.10;91.50;;;;;;5135956;27;20237;-68
2023/04/27 02:00:04;;;;;;;7.53;4.25;;;8.10;91.50;;;;;;5135436;27;20236;-68
2023/04/27 02:02:31;;;;;;;7.72;4.18;;;8.10;91.60;;;;;;5135371;27;20190;-68
2023/04/27 02:04:58;;;;;;;11.48;4.43;;;8.10;91.70;;;;;;5134922;27;20271;-67
2023/04/27 02:07:26;;;;;;;5.78;4.32;;;8.10;91.60;;;;;;5134988;27;20646;-68
2023/04/27 02:09:53;;;;;;;7.20;4.40;;;8.10;91.70;;;;;;5135558;27;20220;-67
2023/04/27 02:12:20;;;;;;;7.53;5.10;;;8.10;91.80;;;;;;5135009;27;20601;-68
2023/04/27 02:14:47;;;;;;;8.60;5.70;;;8.10;92.00;;;;;;5135369;27;20191;-68
2023/04/27 02:17:16;;;;;;;12.07;5.18;;;8.10;91.90;;;;;;5134934;27;20645;-67
2023/04/27 02:19:43;;;;;;;6.60;4.40;;;8.00;92.40;;;;;;5135364;27;20248;-67
2023/04/27 02:22:10;;;;;;;11.07;5.70;;;8.10;92.60;;;;;;5134909;27;20191;-68
2023/04/27 02:24:37;;;;;;;6.25;4.55;;;8.10;92.90;;;;;;5135054;27;20283;-67
2023/04/27 02:27:05;;;;;;;4.78;3.95;;;8.10;92.60;;;;;;5134628;27;20180;-68
2023/04/27 02:29:32;;;;;;;5.25;4.25;;;8.20;92.20;;;;;;5134636;27;20222;-68
2023/04/27 02:31:59;;;;;;;5.97;4.40;;;8.10;92.50;;;;;;5134013;27;20228;-67
2023/04/27 02:34:28;;;;;;;4.65;4.05;;;8.10;92.70;;;;;;5134584;27;20183;-68
2023/04/27 02:36:55;;;;;;;11.23;4.45;;;8.10;92.70;;;;;;5134729;27;20192;-67
2023/04/27 02:39:23;;;;;;;7.55;4.72;;;8.10;92.60;;;;;;5134872;27;20200;-67
2023/04/27 02:41:50;;;;;;;6.97;5.03;;;8.10;92.60;;;;;;5134389;27;20191;-68
2023/04/27 02:44:17;;;;;;;5.70;4.68;;;8.10;92.70;;;;;;5135207;27;20199;-68
2023/04/27 02:46:44;;;;;;;6.30;4.68;;;8.00;92.90;;;;;;5134161;27;20187;-67
2023/04/27 02:49:11;;;;;;;7.15;4.53;;;8.10;92.90;;;;;;5134429;27;20195;-67
2023/04/27 02:51:40;;;;;;;7.72;6.63;;;8.10;92.80;;;;;;5134381;27;20698;-68
2023/04/27 02:54:07;;;;;;;10.15;4.57;;;8.10;93.30;;;;;;5134192;27;20205;-67
2023/04/27 02:56:35;;;;;;;7.05;5.00;;;8.10;93.00;;;;;;5134323;27;20176;-68
2023/04/27 02:59:02;;;;;;;6.95;5.18;;;8.10;93.10;;;;;;5134514;27;20183;-68
2023/04/27 03:01:30;;;;;;;6.00;4.55;;;8.10;93.10;;;;;;5134383;27;20202;-67
2023/04/27 03:03:57;;;;;;;6.15;5.07;;;8.10;93.00;;;;;;5134966;27;20188;-68
2023/04/27 03:06:26;;;;;;;6.97;5.38;;;8.00;93.10;;;;;;5134459;27;20195;-67
2023/04/27 03:08:55;;;;;;;6.47;4.40;;;8.00;93.20;;;;;;5134300;27;20196;-68
2023/04/27 03:11:22;;;;;;;5.75;4.45;;;8.00;93.20;;;;;;5133793;27;20218;-68
2023/04/27 03:13:50;;;;;;;6.47;4.65;;;8.00;93.30;;;;;;5134332;27;20298;-68
2023/04/27 03:16:17;;;;;;;8.60;4.90;;;8.10;93.40;;;;;;5133268;27;20284;-67
2023/04/27 03:18:44;;;;;;;6.82;4.78;;;8.00;93.30;;;;;;5134133;27;20187;-68
2023/04/27 03:21:13;;;;;;;5.35;4.07;;;8.10;93.30;;;;;;5133708;27;20270;-68
2023/04/27 03:23:40;;;;;;;7.32;5.10;;;8.10;93.40;;;;;;5133442;27;20187;-68
2023/04/27 03:26:10;;;;;;;6.90;4.63;;;8.10;93.50;;;;;;5133314;27;20649;-68
2023/04/27 03:28:40;;;;;;;7.50;4.00;;;8.00;93.50;;;;;;5134114;27;20183;-67
2023/04/27 03:31:09;;;;;;;8.68;5.22;;;8.00;93.90;;;;;;5133417;27;20245;-67
2023/04/27 03:33:37;;;;;;;8.32;4.32;;;8.00;93.90;;;;;;5134094;27;20236;-67
2023/04/27 03:36:05;;;;;;;5.50;4.70;;;8.00;93.90;;;;;;5133364;27;20183;-68
2023/04/27 03:38:33;;;;;;;9.68;5.05;;;8.00;93.90;;;;;;5134021;27;20191;-67
2023/04/27 03:41:01;;;;;;;6.05;4.07;;;8.00;93.90;;;;;;5133365;27;20179;-67
2023/04/27 03:43:29;;;;;;;8.20;4.80;;;8.00;94.00;;;;;;5133722;27;20195;-67
2023/04/27 03:45:57;;;;;;;10.27;5.72;;;8.00;93.80;;;;;;5133314;27;20192;-67
2023/04/27 03:48:24;;;;;;;6.60;4.70;;;8.00;93.80;;;;;;5133771;27;20234;-67
2023/04/27 03:50:51;;;;;;;7.28;5.13;;;8.00;94.00;;;;;;5132872;27;20226;-67
2023/04/27 03:53:19;;;;;;;7.40;5.15;;;8.00;94.00;;;;;;5133713;27;20192;-67
2023/04/27 03:55:46;;;;;;;5.68;5.05;;;8.00;94.10;;;;;;5133364;27;20603;-67
2023/04/27 03:58:17;;;;;;;6.78;5.10;;;8.00;94.10;;;;;;5133480;27;20278;-67
2023/04/27 04:00:46;;;;;;;8.05;5.13;;;8.10;94.00;;;;;;5133039;28;20223;-67
2023/04/27 04:03:13;;;;;;;7.05;5.10;;;8.10;93.90;;;;;;5133583;28;20187;-67
2023/04/27 04:05:41;;;;;;;5.85;4.40;;;8.10;93.90;;;;;;5133130;28;20187;-67
2023/04/27 04:08:08;;;;;;;6.25;4.90;;;8.10;93.90;;;;;;5133479;28;20213;-67
2023/04/27 04:10:36;;;;;;;6.55;4.85;;;8.10;93.90;;;;;;5133328;28;20215;-67
2023/04/27 04:13:03;;;;;;;6.45;5.20;;;8.20;94.10;;;;;;5133924;28;20219;-67
2023/04/27 04:15:30;;;;;;;6.22;5.10;;;8.10;94.10;;;;;;5133447;28;20211;-67
2023/04/27 04:17:59;;;;;;;6.55;4.40;;;8.20;94.10;;;;;;5133400;28;20195;-67
2023/04/27 04:20:27;;;;;;;7.20;4.90;;;8.20;94.20;;;;;;5132852;28;20232;-67
2023/04/27 04:22:54;;;;;;;9.07;4.30;;;8.20;94.10;;;;;;5133744;28;20187;-67
2023/04/27 04:25:24;;;;;;;7.88;5.57;;;8.20;94.00;;;;;;5132913;28;20184;-67
2023/04/27 04:27:52;;;;;;;5.70;4.90;;;8.20;94.00;;;;;;5132891;28;20245;-67
2023/04/27 04:30:19;;;;;;;6.05;4.43;;;8.30;94.40;;;;;;5132605;28;20222;-67
2023/04/27 04:32:47;;;;;;;6.00;4.72;;;8.20;93.70;;;;;;5133252;28;20196;-67
2023/04/27 04:35:18;;;;;;;7.43;4.35;;;8.20;93.70;;;;;;5133137;28;20191;-67
2023/04/27 04:37:45;;;;;;;8.30;4.10;;;8.20;93.70;;;;;;5132649;28;20186;-67
2023/04/27 04:40:13;;;;;;;6.10;4.38;;;8.20;93.80;;;;;;5131762;28;20191;-67
2023/04/27 04:42:40;;;;;;;6.80;4.53;;;8.20;93.90;;;;;;5132981;28;20188;-67
2023/04/27 04:45:09;;;;;;;6.47;4.90;;;8.20;94.00;;;;;;5132920;28;20194;-67
2023/04/27 04:47:36;;;;;;;6.10;4.50;;;8.20;94.10;;;;;;5131584;28;20188;-67
2023/04/27 04:50:04;;;;;;;8.07;4.32;;;8.30;94.10;;;;;;5133018;28;20214;-67
2023/04/27 04:52:33;;;;;;;6.75;4.70;;;8.20;94.10;;;;;;5135765;27;20646;-67
2023/04/27 04:55:00;;;;;;;7.32;4.63;;;8.30;94.40;;;;;;5136550;27;20187;-67
2023/04/27 04:57:27;;;;;;;9.30;4.60;;;8.30;94.20;;;;;;5136512;27;20278;-67
2023/04/27 04:59:55;;;;;;;6.15;4.80;;;8.40;94.20;;;;;;5136020;27;20233;-67
2023/04/27 05:02:22;;;;;;;10.15;5.05;;;8.30;94.30;;;;;;5136630;27;20216;-67
2023/04/27 05:04:50;;;;;;;10.80;4.90;;;8.40;94.50;;;;;;5136063;27;20202;-67
2023/04/27 05:07:18;;;;;;;7.30;4.65;;;8.50;94.60;;;;;;5136220;27;20618;-67
2023/04/27 05:09:47;;;;;;;9.73;5.25;;;8.50;94.70;;;;;;5136065;27;20220;-67
2023/04/27 05:12:14;;;;;;;9.40;4.50;;;8.60;94.60;;;;;;5136412;27;20270;-67
2023/04/27 05:14:42;;;;;;;6.40;4.68;;;8.60;94.50;;;;;;5135463;27;20191;-67
2023/04/27 05:17:09;;;;;;;7.55;4.95;;;8.70;94.60;;;;;;5136203;27;20236;-67
2023/04/27 05:19:36;;;;;;;6.85;5.32;;;8.80;94.60;;;;;;5136116;27;20670;-68
2023/04/27 05:22:04;;;;;;;8.35;5.20;;;8.90;94.30;;;;;;5136285;27;20263;-67
2023/04/27 05:24:31;;;;;;;8.82;6.40;;;8.90;94.20;;;;;;5136276;27;20196;-67
2023/04/27 05:27:00;;;;;;;10.63;6.40;;;9.00;94.10;;;;;;5135669;27;20215;-67
2023/04/27 05:29:27;;;;;;;6.32;5.05;;;9.10;93.90;;;;;;5136280;27;20230;-67
2023/04/27 05:31:55;;;;;;;7.15;4.88;;;9.20;93.80;;;;;;5135685;27;20685;-67
2023/04/27 05:34:22;;;;;;;7.55;6.07;;;9.20;93.70;;;;;;5135924;27;20191;-67
2023/04/27 05:36:49;;;;;;;7.05;5.53;;;9.30;93.60;;;;;;5135753;27;20188;-67
2023/04/27 05:39:17;;;;;;;8.05;5.25;;;9.30;93.60;;;;;;5136169;27;20195;-67
2023/04/27 05:41:44;;;;;;;11.75;5.45;;;9.30;93.70;;;;;;5135384;27;20184;-67
2023/04/27 05:44:13;;;;;;;6.78;5.00;;;9.40;93.70;;;;;;5114787;27;20200;-67
2023/04/27 05:46:40;;;;;;;6.03;5.43;;;9.50;93.60;;;;;;5134580;27;20188;-67
2023/04/27 05:49:07;;;;;;;5.45;4.95;;;9.60;93.50;;;;;;5134662;27;20192;-67
2023/04/27 05:51:37;;;;;;;6.38;4.63;;;9.60;93.50;;;;;;5134013;27;20214;-67
2023/04/27 05:54:04;;;;;;;8.05;4.80;;;9.70;93.50;;;;;;5135731;27;20191;-67
2023/04/27 05:56:31;;;;;;;7.38;5.68;;;9.70;93.40;;;;;;5134819;27;20184;-67
2023/04/27 05:58:59;;;;;;;6.32;5.72;;;9.80;93.40;;;;;;5135813;27;20196;-67
2023/04/27 06:01:27;;;;;;;6.55;4.75;;;9.80;93.20;;;;;;5123427;27;21596;-67
2023/04/27 06:03:54;;;;;;;11.15;6.28;;;9.90;93.30;;;;;;5134362;27;20275;-68
2023/04/27 06:06:21;;;;;;;9.35;7.03;;;9.90;93.20;;;;;;5134825;27;20188;-67
2023/04/27 06:08:48;;;;;;;7.93;5.43;;;10.00;92.70;;;;;;5120783;27;20223;-67
2023/04/27 06:11:15;;;;;;;8.05;5.78;;;10.10;92.50;;;;;;5123247;27;20302;-67
2023/04/27 06:13:42;;;;;;;9.57;5.55;;;10.10;92.20;;;;;;5134390;27;20234;-67
2023/04/27 06:16:09;;;;;;;13.52;6.55;;;10.20;92.10;;;;;;5134158;27;20307;-67
2023/04/27 06:18:37;;;;;;;7.13;5.75;;;10.20;92.00;;;;;;5135564;27;20222;-67
2023/04/27 06:21:05;;;;;;;6.60;5.35;;;10.30;92.00;;;;;;5119977;27;20266;-67
2023/04/27 06:23:32;;;;;;;7.85;5.95;;;10.30;91.90;;;;;;5135321;27;20282;-67
2023/04/27 06:26:00;;;;;;;7.80;5.65;;;10.40;91.90;;;;;;5132709;27;20275;-67
2023/04/27 06:28:28;;;;;;;5.57;4.40;;;10.50;91.90;;;;;;5134499;27;20191;-67
2023/04/27 06:30:59;;;;;;;11.05;5.40;;;10.50;92.10;;;;;;5134485;27;20254;-67
2023/04/27 06:33:26;;;;;;;8.35;7.43;;;10.60;92.30;;;;;;5135442;27;20184;-67
2023/04/27 06:35:55;;;;;;;7.40;6.20;;;10.70;92.30;;;;;;5134634;27;20244;-67
2023/04/27 06:38:22;;;;;;;9.73;5.30;;;10.80;92.30;;;;;;5133765;27;20690;-67
2023/04/27 06:40:51;;;;;;;8.15;5.63;;;10.90;92.10;;;;;;5135232;27;20192;-67
2023/04/27 06:43:19;;;;;;;6.68;6.00;;;11.10;91.90;;;;;;5134600;27;20510;-67
2023/04/27 06:45:46;;;;;;;7.63;5.97;;;11.10;91.90;;;;;;5134663;27;20227;-67
2023/04/27 06:48:13;;;;;;;7.53;5.65;;;11.20;91.60;;;;;;5134736;27;20227;-67
2023/04/27 06:50:40;;;;;;;11.20;6.00;;;11.30;91.40;;;;;;5134737;27;20246;-67
2023/04/27 06:53:09;;;;;;;6.60;5.65;;;11.30;91.20;;;;;;5134766;27;20227;-67
2023/04/27 06:55:36;;;;;;;7.80;5.65;;;11.40;91.00;;;;;;5130202;27;20184;-67
2023/04/27 06:58:03;;;;;;;7.32;5.57;;;11.50;90.90;;;;;;5134167;27;20616;-67
2023/04/27 07:00:30;;;;;;;11.27;6.85;;;11.60;90.80;;;;;;5134636;27;20700;-67
2023/04/27 07:02:57;;;;;;;7.05;5.57;;;11.70;90.90;;;;;;5134635;27;20585;-68
2023/04/27 07:05:24;;;;;;;6.72;5.40;;;11.80;91.00;;;;;;5134400;27;20248;-67
2023/04/27 07:07:51;;;;;;;7.80;5.03;;;12.00;90.90;;;;;;5133936;27;20230;-67
2023/04/27 07:10:19;;;;;;;9.57;6.97;;;12.10;90.80;;;;;;5134023;27;20646;-67
2023/04/27 07:12:46;;;;;;;7.25;5.88;;;12.20;90.10;;;;;;5127588;27;20292;-67
2023/04/27 07:15:14;;;;;;;6.35;5.20;;;12.40;89.90;;;;;;5132851;27;20259;-67
2023/04/27 07:17:40;;;;;;;7.77;5.90;;;12.60;89.60;;;;;;5133013;27;20199;-67
2023/04/27 07:20:08;;;;;;;8.50;4.20;;;12.90;88.80;;;;;;5123493;27;20844;-67
2023/04/27 07:22:35;;;;;;;8.23;4.47;;;13.10;87.40;;;;;;5131568;27;20521;-67
2023/04/27 07:25:03;;;;;;;8.90;3.80;;;13.20;85.30;;;;;;5133852;27;20532;-68
2023/04/27 07:27:31;;;;;;;7.00;5.13;;;13.40;83.60;;;;;;5132476;27;20445;-67
2023/04/27 07:29:58;;;;;;;7.87;5.20;;;13.50;80.70;;;;;;5129656;27;20471;-68
2023/04/27 07:32:25;;;;;;;9.27;4.80;;;13.50;80.30;;;;;;5132569;27;21049;-67
2023/04/27 07:34:52;;;;;;;5.57;4.30;;;13.60;80.00;;;;;;5129390;27;20502;-67
2023/04/27 07:37:19;;;;;;;3.87;3.47;;;13.70;79.40;;;;;;5129226;27;20520;-67
2023/04/27 07:39:47;;;;;;;5.17;3.50;;;13.70;78.80;;;;;;5128905;27;20766;-68
2023/04/27 07:42:14;;;;;;;5.13;3.60;;;13.70;77.70;;;;;;5133413;27;20557;-67
2023/04/27 07:44:43;;;;;;;4.53;3.30;;;13.80;76.50;;;;;;5133493;27;20439;-67
2023/04/27 07:47:10;;;;;;;6.83;2.83;;;13.80;73.90;;;;;;5133261;27;20472;-68
2023/04/27 07:49:39;;;;;;;6.10;3.60;;;13.80;74.20;;;;;;5127507;27;20438;-67
2023/04/27 07:52:06;;;;;;;3.43;3.03;;;13.90;74.10;;;;;;5133474;27;20494;-68
2023/04/27 07:54:33;;;;;;;4.40;3.07;;;13.90;74.20;;;;;;5132077;27;20853;-67
2023/04/27 07:57:01;;;;;;;4.23;3.10;;;13.90;72.40;;;;;;5132667;27;20548;-67
2023/04/27 07:59:29;;;;;;;7.13;3.53;;;14.00;73.20;;;;;;5125355;27;20462;-67
2023/04/27 08:01:57;;;;;;;5.20;2.90;;;14.20;72.60;;;;;;5128858;27;20504;-67
2023/04/27 08:04:24;;;;;;;3.83;2.83;;;14.30;72.20;;;;;;5126497;28;20477;-67
2023/04/27 08:06:51;;;;;;;4.60;2.73;;;14.30;71.70;;;;;;5132925;28;20445;-67
2023/04/27 08:09:18;;;;;;;6.03;3.17;;;14.40;71.00;;;;;;5128328;28;20534;-67
2023/04/27 08:11:45;;;;;;;5.00;3.00;;;14.50;69.90;;;;;;5131340;28;20560;-68
2023/04/27 08:14:13;;;;;;;5.40;3.07;;;14.60;68.20;;;;;;5128241;28;20441;-67
2023/04/27 08:16:40;;;;;;;4.20;3.00;;;14.90;68.40;;;;;;5132651;28;20470;-67
2023/04/27 08:19:09;;;;;;;4.10;2.67;;;15.20;65.40;;;;;;5130682;28;20528;-67
2023/04/27 08:21:36;;;;;;;5.40;2.90;;;15.40;63.70;;;;;;5133027;28;20448;-68
2023/04/27 08:24:04;;;;;;;3.80;2.40;;;15.80;63.00;;;;;;5130890;28;20465;-67
2023/04/27 08:26:30;;;;;;;7.00;2.60;;;16.30;62.70;;;;;;5133729;27;20476;-68
2023/04/27 08:28:58;;;;;;;5.30;2.60;;;16.70;61.10;;;;;;5126887;27;20476;-67
2023/04/27 08:31:26;;;;;;;5.53;2.23;;;17.10;58.50;;;;;;5133115;27;20503;-68
2023/04/27 08:33:54;;;;;;;4.60;2.47;;;17.30;59.30;;;;;;5135035;27;20461;-67
2023/04/27 08:36:23;;;;;;;4.07;3.03;;;17.70;58.70;;;;;;5132796;27;20951;-68
2023/04/27 08:38:51;;;;;;;5.50;3.47;;;17.80;54.60;;;;;;5134268;27;20923;-68
2023/04/27 08:41:21;;;;;;;5.70;3.17;;;18.00;55.60;;;;;;5132142;27;20442;-68
2023/04/27 08:43:49;;;;;;;5.20;2.60;;;18.10;54.30;;;;;;5134241;27;20437;-68
2023/04/27 08:46:19;;;;;;;5.00;2.90;;;18.10;52.60;;;;;;5136711;27;20464;-67
2023/04/27 08:48:47;;;;;;;4.97;2.90;;;18.20;53.60;;;;;;5134019;27;20441;-68
2023/04/27 08:51:16;;;;;;;5.33;3.17;;;18.10;52.60;;;;;;5133424;27;20609;-67
2023/04/27 08:53:50;;;;;;;3.67;2.67;;;18.10;53.50;;;;;;5136453;27;20529;-67
2023/04/27 08:56:17;;;;;;;5.17;2.77;;;17.70;51.90;;;;;;5133675;27;20838;-67
2023/04/27 08:58:44;;;;;;;4.97;2.73;;;17.50;51.90;;;;;;5136419;27;20524;-68
2023/04/27 09:01:11;;;;;;;4.50;2.60;;;17.40;53.30;;;;;;5133065;27;20495;-68
2023/04/27 09:03:38;;;;;;;4.70;3.57;;;17.20;53.80;;;;;;5136303;27;20465;-68
2023/04/27 09:06:06;;;;;;;4.80;2.30;;;17.10;55.10;;;;;;5133343;27;20475;-68
2023/04/27 09:08:44;;;;;;;4.73;2.70;;;16.80;52.90;;;;;;5135664;27;20473;-68
2023/04/27 09:11:12;;;;;;;4.27;2.40;;;16.50;53.40;;;;;;5125955;27;20425;-68
2023/04/27 09:13:41;;;;;;;4.63;3.07;;;16.20;54.00;;;;;;5135662;27;20439;-68
2023/04/27 09:16:08;;;;;;;3.30;2.37;;;15.90;54.50;;;;;;5132650;27;20849;-67
2023/04/27 09:18:37;;;;;;;4.70;2.50;;;15.70;55.70;;;;;;5136264;27;20862;-68
2023/04/27 09:21:04;;;;;;;9.77;3.10;;;15.60;56.00;;;;;;5124906;27;20892;-67
2023/04/27 09:23:32;;;;;;;3.30;2.67;;;15.30;56.10;;;;;;5132616;27;20941;-68
2023/04/27 09:26:01;;;;;;;3.83;3.23;;;15.10;56.80;;;;;;5130147;27;20540;-68
2023/04/27 09:28:31;;;;;;;4.70;2.40;;;15.20;57.20;;;;;;5127929;27;20516;-67
2023/04/27 09:31:00;;;;;;;3.00;2.10;;;15.20;57.70;;;;;;5126466;27;20438;-67
2023/04/27 09:33:29;;;;;;;5.80;2.80;;;15.40;57.70;;;;;;5127851;27;21004;-67
2023/04/27 09:35:57;;;;;;;4.40;2.33;;;15.40;57.70;;;;;;5131235;27;20434;-67
2023/04/27 09:38:24;;;;;;;3.23;2.30;;;15.50;57.60;;;;;;5130756;27;20532;-67
2023/04/27 09:40:52;;;;;;;3.00;2.17;;;15.50;58.10;;;;;;5133563;27;20453;-68
2023/04/27 09:43:20;;;;;;;3.33;2.23;;;15.50;58.30;;;;;;5132370;27;20524;-68
2023/04/27 09:45:49;;;;;;;7.20;2.73;;;15.50;57.90;;;;;;5130973;27;20445;-67
2023/04/27 09:48:17;;;;;;;3.93;2.80;;;15.40;58.40;;;;;;5119439;27;20536;-67
2023/04/27 09:50:45;;;;;;;4.57;2.73;;;15.50;57.90;;;;;;5135805;27;20561;-68
2023/04/27 09:53:15;;;;;;;4.83;2.87;;;15.60;57.90;;;;;;5118415;27;20590;-68
2023/04/27 09:55:48;;;;;;;6.00;2.40;;;15.70;57.60;;;;;;5114024;28;20456;-68
2023/04/27 09:58:35;;;;;;;3.37;2.40;;;15.80;57.20;;;;;;5114894;28;20530;-68
2023/04/27 10:01:09;;;;;;;5.80;2.00;;;15.80;57.60;;;;;;5114893;28;20483;-68
2023/04/27 10:03:51;;;;;;;5.40;2.80;;;15.70;57.50;;;;;;5115002;28;20513;-68
2023/04/27 10:06:59;;;;;;;3.90;2.00;;;15.80;58.20;;;;;;5114793;28;20999;-67
2023/04/27 10:09:35;;;;;;;3.70;2.60;;;16.10;56.90;;;;;;5115274;28;20434;-68
2023/04/27 10:12:15;;;;;;;7.40;2.10;;;16.40;54.70;;;;;;5114980;28;20568;-68
2023/04/27 10:14:49;;;;;;;3.23;2.10;;;16.40;53.90;;;;;;5112201;27;20446;-68
2023/04/27 10:17:18;;;;;;;3.83;2.73;;;16.30;54.10;;;;;;5127314;27;20425;-68
2023/04/27 10:19:58;;;;;;;4.50;2.87;;;16.30;55.00;;;;;;5134766;27;20461;-68
2023/04/27 10:22:38;;;;;;;3.83;2.73;;;16.30;55.70;;;;;;5131273;27;20494;-68
2023/04/27 10:25:15;;;;;;;4.83;2.97;;;16.60;56.90;;;;;;5135061;27;20433;-68
2023/04/27 10:27:42;;;;;;;6.03;2.90;;;17.00;55.00;;;;;;5134857;27;20472;-68
2023/04/27 10:30:10;;;;;;;3.60;2.63;;;17.60;54.10;;;;;;5134714;27;20943;-68
2023/04/27 10:32:51;;;;;;;3.50;2.43;;;18.00;53.50;;;;;;5134295;27;21006;-67
2023/04/27 10:35:19;;;;;;;4.60;2.53;;;18.50;51.70;;;;;;5134171;27;20464;-68
2023/04/27 10:37:46;;;;;;;4.50;3.00;;;18.90;50.60;;;;;;5133074;27;20433;-68
2023/04/27 10:40:16;;;;;;;3.83;2.47;;;19.00;49.10;;;;;;5134702;27;20830;-68
2023/04/27 10:42:44;;;;;;;6.07;2.27;;;19.30;47.70;;;;;;5134111;27;20433;-68
2023/04/27 10:45:12;;;;;;;5.37;2.90;;;19.70;46.60;;;;;;5134172;27;20469;-68
2023/04/27 10:47:42;;;;;;;3.63;2.10;;;20.00;45.20;;;;;;5134346;27;20481;-68
2023/04/27 10:50:12;;;;;;;6.27;3.57;;;20.30;46.50;;;;;;5133649;27;20520;-67
2023/04/27 10:52:41;;;;;;;4.27;2.97;;;20.60;45.40;;;;;;5134174;27;20534;-68
2023/04/27 10:55:26;;;;;;;4.00;2.40;;;20.90;45.50;;;;;;5133965;27;20429;-68
2023/04/27 10:57:55;;;;;;;5.73;2.00;;;20.70;43.60;;;;;;5134453;27;20520;-68
2023/04/27 11:00:26;;;;;;;4.67;3.00;;;20.10;44.90;;;;;;5134093;27;20469;-68
2023/04/27 11:02:56;;;;;;;3.80;2.40;;;19.60;46.00;;;;;;5134825;27;20520;-68
2023/04/27 11:05:28;;;;;;;4.93;2.20;;;19.10;46.20;;;;;;5134302;27;20536;-67
2023/04/27 11:08:05;;;;;;;4.67;2.83;;;18.70;47.20;;;;;;5132897;27;20809;-68
2023/04/27 11:10:35;;;;;;;3.40;2.40;;;18.50;48.00;;;;;;5130256;27;20425;-69
2023/04/27 11:13:08;;;;;;;7.20;2.90;;;18.20;48.60;;;;;;5133800;27;20523;-67
2023/04/27 11:15:46;;;;;;;4.60;2.27;;;18.00;49.60;;;;;;5130281;27;20999;-67
2023/04/27 11:18:16;;;;;;;3.40;2.37;;;17.50;50.20;;;;;;5131848;27;20961;-67
2023/04/27 11:20:44;;;;;;;6.33;2.50;;;17.00;50.00;;;;;;5132715;27;20528;-67
2023/04/27 11:23:11;;;;;;;4.70;3.33;;;16.70;51.20;;;;;;5133275;27;20440;-67
2023/04/27 11:25:38;;;;;;;4.30;2.57;;;16.50;51.70;;;;;;5133931;27;20512;-67
2023/04/27 11:28:05;;;;;;;6.13;2.60;;;16.20;52.10;;;;;;5134244;27;20494;-67
2023/04/27 11:30:33;;;;;;;4.40;2.73;;;16.00;52.60;;;;;;5132520;27;20493;-67
2023/04/27 11:33:08;;;;;;;4.20;2.47;;;15.90;53.80;;;;;;5124851;27;20520;-67
2023/04/27 11:35:38;;;;;;;5.23;2.63;;;15.80;55.60;;;;;;5118780;27;20433;-67
2023/04/27 11:38:20;;;;;;;5.40;3.60;;;16.00;57.80;;;;;;5133773;27;20429;-67
2023/04/27 11:41:00;;;;;;;4.30;2.87;;;16.60;58.30;;;;;;5132960;27;20437;-67
2023/04/27 11:43:27;;;;;;;3.90;2.20;;;17.70;57.60;;;;;;5132494;27;20437;-67
2023/04/27 11:45:56;;;;;;;4.73;2.20;;;18.60;54.70;;;;;;5132148;27;20475;-67
2023/04/27 11:48:27;;;;;;;4.30;2.53;;;18.50;52.10;;;;;;5133454;27;20444;-67
2023/04/27 11:50:59;;;;;;;4.20;2.33;;;18.50;52.80;;;;;;5134103;27;20880;-67
2023/04/27 11:53:31;;;;;;;5.17;2.63;;;18.20;52.70;;;;;;5133594;27;20961;-67
2023/04/27 11:56:01;;;;;;;3.83;2.17;;;18.00;53.20;;;;;;5133856;27;20430;-67
2023/04/27 11:58:28;;;;;;;5.67;2.33;;;17.90;54.10;;;;;;5133660;27;20444;-67
2023/04/27 12:00:56;;;;;;;4.30;2.50;;;17.70;55.00;;;;;;5133058;27;20449;-67
2023/04/27 12:03:24;;;;;;;4.03;2.27;;;17.50;55.10;;;;;;5133476;27;20516;-67
2023/04/27 12:05:52;;;;;;;6.10;2.67;;;17.20;55.60;;;;;;5133658;28;20437;-67
2023/04/27 12:08:20;;;;;;;3.10;2.30;;;16.90;55.70;;;;;;5133619;28;20493;-67
2023/04/27 12:10:47;;;;;;;7.40;2.87;;;16.70;56.50;;;;;;5133773;28;20465;-66
2023/04/27 12:13:19;;;;;;;4.63;2.60;;;16.70;57.70;;;;;;5133190;28;20481;-67
2023/04/27 12:15:48;;;;;;;4.10;2.10;;;16.60;58.30;;;;;;5133987;28;20457;-67
2023/04/27 12:18:15;;;;;;;8.83;2.47;;;16.70;58.70;;;;;;5133872;28;20491;-67
2023/04/27 12:20:42;;;;;;;5.93;2.70;;;17.00;59.60;;;;;;5134037;28;20464;-67
2023/04/27 12:23:09;;;;;;;6.10;3.20;;;17.10;59.60;;;;;;5133600;28;20461;-67
2023/04/27 12:25:39;;;;;;;3.80;2.50;;;17.10;59.90;;;;;;5133390;28;20476;-67
2023/04/27 12:28:06;;;;;;;4.30;2.87;;;16.80;59.40;;;;;;5133371;28;20484;-67
2023/04/27 12:30:35;;;;;;;6.30;3.10;;;16.70;59.30;;;;;;5133183;28;20962;-67
2023/04/27 12:33:08;;;;;;;5.23;2.90;;;16.50;59.20;;;;;;5133320;28;20576;-67
2023/04/27 12:35:35;;;;;;;5.23;3.03;;;16.40;61.20;;;;;;5133546;28;20476;-67
2023/04/27 12:38:03;;;;;;;6.00;2.73;;;16.30;62.90;;;;;;5133114;28;20962;-67
2023/04/27 12:40:30;;;;;;;5.83;3.20;;;16.30;63.70;;;;;;5133501;28;20777;-67
2023/04/27 12:42:58;;;;;;;4.53;3.07;;;16.30;64.10;;;;;;5133123;28;20465;-67
2023/04/27 12:45:25;;;;;;;4.60;3.27;;;16.50;64.20;;;;;;5133272;28;20497;-67
2023/04/27 12:47:53;;;;;;;4.20;2.37;;;16.80;61.80;;;;;;5133321;28;20473;-67
2023/04/27 12:50:20;;;;;;;3.20;2.20;;;16.90;62.60;;;;;;5133439;28;20520;-67
2023/04/27 12:52:49;;;;;;;5.47;3.20;;;16.90;60.90;;;;;;5133206;28;20564;-67
2023/04/27 12:55:16;;;;;;;4.53;3.17;;;16.80;61.30;;;;;;5133264;28;20439;-67
2023/04/27 12:57:47;;;;;;;5.13;3.13;;;16.80;61.60;;;;;;5133142;28;20433;-67